Bavaria

Go HERE for most recent data if this page is not up to date.

Jump to table bottom
Date Time Temp F RH % AVG Wind Max Wind Wind Dir 24 Snow Depth
*12/10/22 01 8.0 54 10 21 W - 281 1.0 44.4
*12/10/22 00 8.1 60 14 22 SW - 239 1.0 44.2
*12/09/22 23 7.1 78 10 17 W - 256 0.9 43.8
*12/09/22 22 7.4 78 7 15 W - 274 0.8 44.4
*12/09/22 21 7.0 72 13 19 W - 251 0.9 44.1
*12/09/22 20 6.9 82 12 22 W - 251 0.9 43.9
*12/09/22 19 7.5 83 11 17 W - 265 0.6 143.3
*12/09/22 18 9.0 84 10 14 W - 248 0.2 44.1
*12/09/22 17 9.8 85 9 16 W - 276 0.0 143.3
*12/09/22 16 10.2 85 10 15 W - 276 0.1 143.3
*12/09/22 15 10.1 84 11 16 W - 270 0.5 143.3
*12/09/22 14 11.2 84 9 18 W - 251 0.5 143.3
*12/09/22 13 11.5 84 9 17 W - 252 0.4 143.3
*12/09/22 12 12.4 85 6 12 SW - 208 0.0 143.3
*12/09/22 11 11.1 85 9 20 SW - 241 0.2 42.7
*12/09/22 10 10.3 85 13 20 W - 257 0.0 42.1
*12/09/22 09 10.9 82 15 21 SW - 243 0.1 41.9
*12/09/22 08 10.9 82 17 24 W - 252 0.1 42.0
*12/09/22 07 12.4 74 17 26 S - 197 0.2 42.1
*12/09/22 06 11.2 76 16 30 SW - 233 0.2 42.1
*12/09/22 05 10.6 74 16 26 SW - 230 0.2 42.1
*12/09/22 04 11.9 62 15 25 SW - 224 0.2 42.4
*12/09/22 03 9.4 61 9 20 S - 193 0.2 42.4
*12/09/22 02 10.1 60 8 23 SW - 233 0.2 42.5
*12/09/22 01 10.9 49 7 16 NW - 313 0.2 42.5
*12/09/22 00 10.5 49 8 22 W - 277 0.2 42.5
.